EFKE/KEM METAR and TAF weather

Enter ICAO airport designator
Station Type Date Time Source
EFKE METAR 2019/04/18 20:50 UTC NOAA

EFKE 182050Z AUTO 21005KT CAVOK M01/M03 Q1030


Station Type Date Time Source
EFKE Decoded METAR 2019/04/18 20:50 UTC NOAA

Kemi, Finland (EFKE) 65-47N 024-35E
Apr 18, 2019 - 04:50 PM EDT / 2019.04.18 2050 UTC
Wind: from the SSW (210 degrees) at 6 MPH (5 KT):0
Visibility: greater than 7 mile(s):0
Temperature: 30 F (-1 C)
Windchill: 23 F (-5 C):1
Dew Point: 26 F (-3 C)
Relative Humidity: 86%
Pressure (altimeter): 30.42 in. Hg (1030 hPa)
ob: EFKE 182050Z AUTO 21005KT CAVOK M01/M03 Q1030
cycle: 21

Station Type Date Time Source
EFKE TAF 2015/01/12 15:42 UTC NOAA

TAF EFKE 121433Z 1215/1312 03006KT CAVOK
BECMG 1300/1302 9999 BKN015
FM130400 07008KT 9999 SCT014 BKN018
TEMPO 1304/1312 7000 -SN

Example: see airport list